Time;durP1;ratioP1;P1;durP2;ratioP2;P2;SDS_P1;SDS_P2;PMS_P1;PMS_P2;Temp;Humidity;BMP_temperature;BMP_pressure;BME280_temperature;BME280_humidity;BME280_pressure;Samples;Min_cycle;Max_cycle;Signal;HPM_P1;HPM_P2
2022/10/06 00:02:19;;;;;;;14.02;8.10;;;10.80;99.90;;;;;;10404371;28;20044;-79
2022/10/06 00:07:20;;;;;;;17.45;8.63;;;10.80;99.90;;;;;;10403590;28;20025;-77
2022/10/06 00:12:20;;;;;;;15.60;8.50;;;10.80;99.90;;;;;;10402264;28;20496;-80
2022/10/06 00:17:21;;;;;;;15.15;8.07;;;10.90;99.90;;;;;;10403300;28;20543;-78
2022/10/06 00:22:21;;;;;;;14.73;8.23;;;10.90;99.90;;;;;;10404963;28;20045;-78
2022/10/06 00:27:22;;;;;;;19.00;10.85;;;10.90;99.90;;;;;;10400769;28;20026;-78
2022/10/06 00:32:22;;;;;;;21.33;9.80;;;10.90;99.90;;;;;;10401087;28;20068;-76
2022/10/06 00:37:25;;;;;;;15.15;8.80;;;11.00;99.90;;;;;;10404064;28;20038;-80
2022/10/06 00:42:28;;;;;;;14.52;8.10;;;11.00;99.90;;;;;;10401899;28;20064;-79
2022/10/06 00:47:32;;;;;;;14.75;6.93;;;11.00;99.90;;;;;;10390548;28;20041;-77
2022/10/06 00:52:32;;;;;;;9.38;5.25;;;11.10;99.90;;;;;;10394361;28;20068;-77
2022/10/06 00:57:38;;;;;;;14.23;5.95;;;11.20;99.90;;;;;;10399447;28;20105;-77
2022/10/06 01:02:45;;;;;;;10.43;4.85;;;11.10;99.90;;;;;;10402679;28;20037;-80
2022/10/06 01:07:46;;;;;;;7.35;5.25;;;11.20;99.90;;;;;;10407110;28;20042;-79
2022/10/06 01:12:47;;;;;;;7.47;5.30;;;11.30;99.90;;;;;;10411125;28;20034;-80
2022/10/06 01:17:57;;;;;;;7.32;5.20;;;11.40;99.90;;;;;;10402570;28;20117;-77
2022/10/06 01:23:05;;;;;;;11.10;6.65;;;11.60;99.90;;;;;;10411167;28;20136;-79
2022/10/06 01:28:07;;;;;;;14.07;6.53;;;11.80;99.90;;;;;;10409329;28;20033;-77
2022/10/06 01:33:08;;;;;;;10.63;5.57;;;12.00;99.90;;;;;;10410318;28;20059;-78
2022/10/06 01:38:09;;;;;;;8.02;5.07;;;12.20;99.90;;;;;;10405565;28;20394;-77
2022/10/06 01:43:09;;;;;;;7.82;4.93;;;12.30;99.90;;;;;;10405763;28;20038;-77
2022/10/06 01:48:10;;;;;;;9.30;5.50;;;12.30;99.90;;;;;;10411298;28;20698;-78
2022/10/06 01:53:10;;;;;;;11.85;5.70;;;12.40;99.90;;;;;;10407623;28;20036;-77
2022/10/06 01:58:11;;;;;;;8.77;5.50;;;12.40;99.90;;;;;;10403522;28;20040;-79
2022/10/06 02:03:12;;;;;;;9.52;6.10;;;12.40;99.90;;;;;;10401402;28;20049;-76
2022/10/06 02:08:13;;;;;;;10.65;5.60;;;12.40;99.90;;;;;;10409817;28;20060;-77
2022/10/06 02:13:13;;;;;;;11.23;5.88;;;12.40;99.90;;;;;;10399093;28;20033;-77
2022/10/06 02:18:20;;;;;;;13.07;6.60;;;12.30;99.90;;;;;;10390926;28;20033;-77
2022/10/06 02:23:20;;;;;;;11.50;5.88;;;12.30;99.90;;;;;;10399033;28;20033;-78
2022/10/06 02:28:21;;;;;;;8.35;5.18;;;12.20;99.90;;;;;;10405489;28;20457;-77
2022/10/06 02:33:22;;;;;;;10.35;6.15;;;12.20;99.90;;;;;;10406387;28;20030;-76
2022/10/06 02:38:23;;;;;;;7.78;5.25;;;12.10;99.90;;;;;;10387740;28;20738;-78
2022/10/06 02:43:28;;;;;;;7.57;5.60;;;12.10;99.90;;;;;;10379834;28;20041;-79
2022/10/06 02:48:30;;;;;;;10.43;6.40;;;12.10;99.90;;;;;;10389614;28;20033;-78
2022/10/06 02:53:30;;;;;;;11.80;6.80;;;12.00;99.90;;;;;;10406707;28;20029;-81
2022/10/06 02:58:31;;;;;;;11.68;7.10;;;12.00;99.90;;;;;;10383001;28;20034;-79
2022/10/06 03:03:36;;;;;;;12.05;6.78;;;11.90;99.90;;;;;;10383235;28;20060;-77
2022/10/06 03:08:36;;;;;;;11.55;6.85;;;11.90;99.90;;;;;;10396747;28;20041;-77
2022/10/06 03:13:37;;;;;;;10.13;6.00;;;11.80;99.90;;;;;;10404214;28;20056;-77
2022/10/06 03:18:37;;;;;;;14.18;7.40;;;11.80;99.90;;;;;;10403980;28;20038;-78
2022/10/06 03:23:38;;;;;;;13.68;7.78;;;11.80;99.90;;;;;;10407361;28;20448;-78
2022/10/06 03:28:39;;;;;;;13.70;8.52;;;11.80;99.90;;;;;;10397406;28;20046;-80
2022/10/06 03:33:39;;;;;;;13.68;8.60;;;11.70;99.90;;;;;;10396805;28;20075;-78
2022/10/06 03:38:41;;;;;;;12.32;8.07;;;11.60;99.90;;;;;;10399707;28;20484;-78
2022/10/06 03:43:43;;;;;;;18.98;9.27;;;11.50;99.90;;;;;;10404548;28;20525;-82
2022/10/06 03:48:44;;;;;;;19.33;10.30;;;11.50;99.90;;;;;;10406595;28;20052;-80
2022/10/06 03:53:46;;;;;;;15.95;9.10;;;11.50;99.90;;;;;;10402786;28;20112;-78
2022/10/06 03:58:53;;;;;;;20.27;9.82;;;11.40;99.90;;;;;;10404809;28;20041;-78
2022/10/06 04:03:55;;;;;;;16.10;9.50;;;11.50;99.90;;;;;;10402814;28;20091;-78
2022/10/06 04:08:56;;;;;;;19.90;11.82;;;11.40;99.90;;;;;;10402227;28;20033;-78
2022/10/06 04:13:59;;;;;;;22.77;10.50;;;11.40;99.90;;;;;;10403372;28;20069;-78
2022/10/06 04:19:02;;;;;;;23.70;11.95;;;11.40;99.90;;;;;;10399192;28;20037;-77
2022/10/06 04:24:05;;;;;;;19.45;10.57;;;11.30;99.90;;;;;;10388787;28;20038;-80
2022/10/06 04:29:13;;;;;;;18.75;10.35;;;11.30;99.90;;;;;;10390145;28;20055;-77
2022/10/06 04:34:13;;;;;;;18.67;11.52;;;11.30;99.90;;;;;;10405573;28;20029;-81
2022/10/06 04:39:14;;;;;;;19.25;10.52;;;11.30;99.90;;;;;;10405103;28;20078;-80
2022/10/06 04:44:15;;;;;;;18.95;10.77;;;11.40;99.90;;;;;;10395539;28;20041;-79
2022/10/06 04:49:16;;;;;;;16.48;9.15;;;11.40;99.90;;;;;;10400480;28;20037;-77
2022/10/06 04:54:17;;;;;;;16.38;8.52;;;11.30;99.90;;;;;;10404546;28;20026;-77
2022/10/06 04:59:18;;;;;;;16.00;9.48;;;11.30;99.90;;;;;;10404933;28;20483;-77
2022/10/06 05:04:19;;;;;;;18.65;10.93;;;11.30;99.90;;;;;;10404377;28;20037;-77
2022/10/06 05:09:19;;;;;;;14.93;8.18;;;11.30;99.90;;;;;;10404825;28;20022;-79
2022/10/06 05:14:20;;;;;;;14.65;7.47;;;11.30;99.90;;;;;;10404400;28;20022;-78
2022/10/06 05:19:20;;;;;;;12.15;7.63;;;11.40;99.90;;;;;;10404475;28;20025;-77
2022/10/06 05:24:21;;;;;;;15.50;7.43;;;11.40;99.90;;;;;;10403574;28;20037;-79
2022/10/06 05:29:22;;;;;;;14.52;7.88;;;11.50;99.90;;;;;;10403055;28;20061;-77
2022/10/06 05:34:22;;;;;;;10.38;6.45;;;11.50;99.90;;;;;;10404417;28;20038;-80
2022/10/06 05:39:23;;;;;;;11.70;6.88;;;11.60;99.90;;;;;;10404180;28;20035;-77
2022/10/06 05:44:23;;;;;;;10.45;7.50;;;11.60;99.90;;;;;;10404190;28;20029;-78
2022/10/06 05:49:24;;;;;;;15.13;7.70;;;11.70;99.90;;;;;;10404497;28;20048;-79
2022/10/06 05:54:24;;;;;;;20.20;9.40;;;11.80;99.90;;;;;;10406601;28;20029;-76
2022/10/06 05:59:25;;;;;;;14.65;7.82;;;11.80;99.90;;;;;;10410856;28;20030;-80
2022/10/06 06:04:25;;;;;;;17.13;10.15;;;11.90;99.90;;;;;;10390395;28;20022;-79
2022/10/06 06:09:27;;;;;;;18.98;10.85;;;12.00;99.90;;;;;;10404438;28;20041;-79
2022/10/06 06:19:47;;;;;;;14.13;8.18;;;12.30;99.90;;;;;;10410336;28;20064;-77
2022/10/06 06:24:47;;;;;;;15.15;9.02;;;12.40;99.90;;;;;;10409939;28;20045;-77
2022/10/06 06:29:48;;;;;;;18.20;8.20;;;12.50;99.90;;;;;;10407989;28;20068;-77
2022/10/06 06:34:49;;;;;;;15.35;8.85;;;12.60;99.90;;;;;;10409549;28;20045;-76
2022/10/06 06:39:49;;;;;;;19.70;10.30;;;12.60;99.90;;;;;;10409664;28;20034;-77
2022/10/06 06:44:50;;;;;;;24.25;12.95;;;12.70;99.90;;;;;;10409282;28;20055;-78
2022/10/06 06:49:50;;;;;;;22.75;12.27;;;12.80;99.90;;;;;;10409168;28;20432;-77
2022/10/06 06:54:51;;;;;;;21.00;12.80;;;12.90;99.90;;;;;;10408819;28;20033;-77
2022/10/06 06:59:51;;;;;;;16.50;10.27;;;12.90;99.90;;;;;;10408607;28;20615;-77
2022/10/06 07:04:52;;;;;;;18.75;10.77;;;12.90;99.90;;;;;;10394735;28;20045;-78
2022/10/06 07:09:58;;;;;;;16.83;9.93;;;13.10;99.90;;;;;;10408646;28;20025;-78
2022/10/06 07:25:37;;;;;;;14.10;7.82;;;13.70;99.90;;;;;;10407561;28;20405;-78
2022/10/06 07:30:39;;;;;;;16.75;8.15;;;14.10;99.90;;;;;;10406108;28;20045;-79
2022/10/06 07:35:39;;;;;;;16.10;8.10;;;14.40;99.90;;;;;;10407135;28;20101;-77
2022/10/06 07:40:40;;;;;;;16.75;7.90;;;14.70;99.90;;;;;;10406714;28;20033;-78
2022/10/06 07:45:40;;;;;;;9.98;7.05;;;14.90;99.90;;;;;;10407681;28;20112;-79
2022/10/06 07:50:43;;;;;;;12.48;7.20;;;14.90;99.90;;;;;;10407082;28;20100;-78
2022/10/06 07:55:45;;;;;;;13.57;6.78;;;15.00;99.90;;;;;;10406636;28;20037;-78
2022/10/06 08:00:47;;;;;;;14.32;7.22;;;15.10;99.90;;;;;;10407069;28;20060;-78
2022/10/06 08:05:56;;;;;;;17.25;8.38;;;15.20;99.90;;;;;;10405968;28;20108;-78
2022/10/06 08:10:58;;;;;;;8.70;5.85;;;15.40;99.90;;;;;;10406650;28;20029;-77
2022/10/06 08:16:07;;;;;;;13.90;6.38;;;15.60;99.90;;;;;;10405176;28;20040;-78
2022/10/06 08:21:27;;;;;;;13.00;7.65;;;15.50;99.90;;;;;;10405561;28;20112;-77
2022/10/06 08:26:29;;;;;;;16.13;9.27;;;15.40;99.90;;;;;;10405297;28;20056;-78
2022/10/06 08:31:31;;;;;;;13.68;7.75;;;15.70;99.90;;;;;;10404052;28;20412;-77
2022/10/06 08:36:31;;;;;;;13.75;7.05;;;15.90;99.90;;;;;;10405434;28;20053;-80
2022/10/06 08:41:39;;;;;;;10.60;6.57;;;16.30;99.90;;;;;;10405183;28;20060;-78
2022/10/06 08:46:48;;;;;;;11.63;6.10;;;16.60;99.90;;;;;;10405475;28;20150;-81
2022/10/06 08:52:04;;;;;;;14.10;7.22;;;16.90;99.90;;;;;;10404681;28;20045;-80
2022/10/06 08:57:20;;;;;;;9.50;5.95;;;17.10;99.90;;;;;;10404827;28;20052;-79
2022/10/06 09:02:26;;;;;;;11.70;5.80;;;17.50;99.90;;;;;;10405106;28;20034;-78
2022/10/06 09:07:41;;;;;;;10.82;6.32;;;17.70;99.90;;;;;;10405005;28;20055;-77
2022/10/06 09:12:50;;;;;;;10.32;5.72;;;17.90;99.90;;;;;;10404788;28;20017;-77
2022/10/06 09:18:01;;;;;;;10.23;6.30;;;18.10;99.90;;;;;;10404296;28;20026;-77
2022/10/06 09:23:05;;;;;;;10.15;6.07;;;18.30;99.90;;;;;;10403831;28;20378;-77
2022/10/06 09:28:14;;;;;;;16.48;6.95;;;18.30;99.90;;;;;;10405042;28;20034;-78
2022/10/06 09:33:23;;;;;;;11.80;6.10;;;18.40;99.90;;;;;;10410165;28;20119;-79
2022/10/06 09:38:52;;;;;;;9.48;6.50;;;18.60;99.90;;;;;;10411656;28;20025;-77
2022/10/06 09:44:23;;;;;;;12.77;7.75;;;18.90;99.90;;;;;;10411592;28;20041;-78
2022/10/06 09:49:26;;;;;;;16.20;7.28;;;19.10;99.90;;;;;;10408935;28;20071;-79
2022/10/06 09:54:27;;;;;;;10.73;5.85;;;19.40;99.90;;;;;;10411299;28;20033;-79
2022/10/06 09:59:33;;;;;;;13.98;7.35;;;19.50;99.90;;;;;;10410787;28;20040;-79
2022/10/06 10:04:38;;;;;;;14.13;8.20;;;19.50;99.90;;;;;;10397590;28;20083;-78
2022/10/06 10:09:40;;;;;;;8.45;5.65;;;19.70;99.90;;;;;;10409398;28;20052;-78
2022/10/06 10:14:41;;;;;;;7.63;4.10;;;19.80;99.90;;;;;;10410055;28;20056;-78
2022/10/06 10:19:43;;;;;;;7.75;5.45;;;20.00;99.90;;;;;;10410392;28;20109;-78
2022/10/06 10:25:25;;;;;;;9.80;4.57;;;20.20;99.90;;;;;;10410225;28;20134;-81
2022/10/06 10:30:27;;;;;;;7.03;4.38;;;20.40;99.80;;;;;;10408657;28;20531;-80
2022/10/06 10:35:40;;;;;;;9.40;5.32;;;20.60;99.70;;;;;;10408983;28;20049;-78
2022/10/06 10:40:50;;;;;;;5.55;3.45;;;21.00;98.30;;;;;;10394911;28;20032;-78
2022/10/06 10:46:09;;;;;;;9.07;3.63;;;21.20;97.60;;;;;;10407484;28;20729;-78
2022/10/06 10:51:33;;;;;;;5.72;3.13;;;21.10;96.80;;;;;;10409319;28;20025;-78
2022/10/06 10:56:34;;;;;;;8.98;3.47;;;20.90;97.30;;;;;;10409418;28;20041;-79
2022/10/06 11:01:46;;;;;;;11.60;6.53;;;21.30;98.00;;;;;;10408781;28;20033;-81
2022/10/06 11:07:10;;;;;;;7.95;4.47;;;21.40;96.90;;;;;;10407950;28;20037;-78
2022/10/06 11:12:35;;;;;;;9.23;4.38;;;21.20;96.90;;;;;;10408046;28;20037;-77
2022/10/06 11:17:45;;;;;;;6.32;4.15;;;20.90;97.10;;;;;;10407796;28;20032;-78
2022/10/06 11:23:18;;;;;;;5.57;3.15;;;20.60;97.10;;;;;;10407537;28;20029;-78
2022/10/06 11:28:24;;;;;;;4.53;2.90;;;20.20;97.50;;;;;;10398770;28;20053;-78
2022/10/06 11:33:29;;;;;;;5.55;3.65;;;20.00;97.90;;;;;;10405686;28;20061;-77
2022/10/06 11:38:39;;;;;;;9.15;4.97;;;19.90;97.90;;;;;;10405416;28;20025;-78
2022/10/06 11:43:42;;;;;;;5.80;4.60;;;19.60;98.40;;;;;;10407227;28;20075;-78
2022/10/06 11:48:43;;;;;;;7.32;4.90;;;19.40;98.90;;;;;;10406896;28;20877;-79
2022/10/06 11:53:44;;;;;;;9.73;5.40;;;19.40;99.80;;;;;;10406105;28;20021;-78
2022/10/06 11:58:53;;;;;;;11.50;4.75;;;19.80;99.90;;;;;;10406426;28;20071;-78
2022/10/06 12:04:08;;;;;;;7.38;4.55;;;20.20;99.70;;;;;;10406472;28;20037;-81
2022/10/06 12:09:24;;;;;;;10.55;4.70;;;20.30;99.90;;;;;;10405666;28;20546;-77
2022/10/06 12:14:53;;;;;;;6.68;3.88;;;20.50;99.60;;;;;;10406023;28;20114;-78
2022/10/06 12:20:01;;;;;;;8.30;4.85;;;20.70;98.40;;;;;;10405546;28;20471;-78
2022/10/06 12:25:31;;;;;;;11.80;5.15;;;20.50;98.00;;;;;;10405562;28;20099;-80
2022/10/06 12:31:01;;;;;;;6.05;3.95;;;20.50;98.40;;;;;;10403663;28;20068;-81
2022/10/06 12:36:09;;;;;;;7.97;5.00;;;20.30;98.80;;;;;;10404912;28;20392;-80
2022/10/06 12:41:13;;;;;;;9.32;4.07;;;20.10;98.70;;;;;;10405022;28;20095;-78
2022/10/06 12:46:26;;;;;;;4.72;2.65;;;19.90;99.20;;;;;;10403571;28;20045;-80
2022/10/06 12:51:41;;;;;;;5.90;3.55;;;20.00;99.90;;;;;;10384771;28;20030;-78
2022/10/06 12:56:42;;;;;;;6.03;3.00;;;20.30;99.90;;;;;;10403129;28;20049;-78
2022/10/06 13:01:43;;;;;;;8.35;2.58;;;20.60;99.90;;;;;;10392300;28;20091;-81
2022/10/06 13:06:48;;;;;;;5.55;3.08;;;21.00;98.60;;;;;;10412343;28;20029;-79
2022/10/06 13:11:49;;;;;;;4.82;2.80;;;21.20;98.20;;;;;;10411828;28;20036;-78
2022/10/06 13:16:49;;;;;;;6.68;3.35;;;21.30;97.60;;;;;;10408286;28;20028;-80
2022/10/06 13:21:50;;;;;;;4.78;3.00;;;20.80;97.40;;;;;;10412625;28;20116;-79
2022/10/06 13:26:51;;;;;;;6.88;3.92;;;20.40;98.00;;;;;;10411812;28;20033;-78
2022/10/06 13:31:54;;;;;;;5.63;3.80;;;20.30;98.80;;;;;;10405546;28;20496;-82
2022/10/06 13:36:57;;;;;;;7.82;4.88;;;20.10;99.00;;;;;;10411587;28;20109;-81
2022/10/06 13:42:00;;;;;;;19.20;10.07;;;20.10;99.40;;;;;;10411832;28;20029;-78
2022/10/06 13:47:12;;;;;;;7.63;4.40;;;20.00;99.40;;;;;;10408000;28;20025;-78
2022/10/06 13:52:17;;;;;;;6.55;3.45;;;20.00;99.90;;;;;;10393109;28;20121;-79
2022/10/06 13:57:41;;;;;;;9.13;2.88;;;19.80;99.90;;;;;;10409486;28;20033;-80
2022/10/06 14:02:44;;;;;;;4.90;2.40;;;19.50;99.90;;;;;;10389092;28;20528;-79
2022/10/06 14:07:45;;;;;;;4.38;3.03;;;19.20;99.90;;;;;;10394337;28;20060;-79
2022/10/06 14:12:46;;;;;;;3.85;2.78;;;18.90;99.90;;;;;;10409435;28;20033;-81
2022/10/06 14:17:59;;;;;;;3.90;2.47;;;18.80;99.90;;;;;;10394724;28;20067;-80
2022/10/06 14:22:59;;;;;;;6.80;3.17;;;18.80;99.90;;;;;;10410449;28;20596;-79
2022/10/06 14:28:00;;;;;;;4.18;2.67;;;18.70;99.90;;;;;;10408453;28;20116;-80
2022/10/06 14:33:00;;;;;;;4.70;3.28;;;18.60;99.90;;;;;;10405701;28;20487;-82
2022/10/06 14:38:01;;;;;;;7.90;3.30;;;18.60;99.90;;;;;;10400064;28;20060;-80
2022/10/06 14:43:01;;;;;;;6.20;3.67;;;18.40;99.90;;;;;;10407339;28;20037;-81
2022/10/06 14:48:03;;;;;;;6.20;3.97;;;18.20;99.90;;;;;;10407284;28;20033;-79
2022/10/06 14:53:04;;;;;;;6.18;4.07;;;18.10;99.90;;;;;;10408588;28;20033;-80
2022/10/06 14:58:04;;;;;;;4.90;3.83;;;18.10;99.90;;;;;;10404899;28;21300;-80
2022/10/06 15:03:05;;;;;;;7.18;4.00;;;18.10;99.90;;;;;;10396707;28;20037;-80
2022/10/06 15:08:09;;;;;;;6.43;4.47;;;18.00;99.90;;;;;;10396218;28;20060;-79
2022/10/06 15:13:09;;;;;;;5.88;4.63;;;18.00;99.90;;;;;;10399997;28;20108;-81
2022/10/06 15:18:10;;;;;;;10.40;5.35;;;17.90;99.90;;;;;;10408838;28;20040;-81
2022/10/06 15:23:11;;;;;;;9.77;5.25;;;17.80;99.90;;;;;;10400908;28;20052;-80
2022/10/06 15:33:32;;;;;;;8.30;5.30;;;17.50;99.90;;;;;;10390680;28;20061;-78
2022/10/06 15:38:35;;;;;;;9.07;5.07;;;17.30;99.90;;;;;;10394321;28;20026;-78
2022/10/06 15:43:55;;;;;;;7.82;4.53;;;17.20;99.90;;;;;;10398772;28;20095;-79
2022/10/06 15:48:59;;;;;;;7.80;4.63;;;17.00;99.90;;;;;;10387354;28;20033;-80
2022/10/06 15:54:00;;;;;;;7.20;4.25;;;16.90;99.90;;;;;;10406305;28;20025;-78
2022/10/06 15:59:01;;;;;;;6.20;4.07;;;16.80;99.90;;;;;;10395836;28;20033;-79
2022/10/06 16:04:11;;;;;;;7.45;4.43;;;16.70;99.90;;;;;;10404473;28;20475;-79
2022/10/06 16:09:12;;;;;;;6.30;3.90;;;16.60;99.90;;;;;;10397772;28;20040;-78
2022/10/06 16:14:14;;;;;;;13.23;4.22;;;16.50;99.90;;;;;;10385467;28;20038;-81
2022/10/06 16:19:16;;;;;;;10.35;4.40;;;16.40;99.90;;;;;;10390142;28;20029;-79
2022/10/06 16:24:17;;;;;;;8.32;5.13;;;16.30;99.90;;;;;;10401733;28;20116;-79
2022/10/06 16:29:20;;;;;;;10.25;5.78;;;16.20;99.90;;;;;;10400215;28;20143;-82
2022/10/06 16:34:21;;;;;;;12.80;6.95;;;15.90;99.90;;;;;;10402282;28;20081;-80
2022/10/06 16:39:22;;;;;;;20.15;10.23;;;15.70;99.90;;;;;;10404588;28;20104;-79
2022/10/06 16:44:22;;;;;;;18.05;9.93;;;15.60;99.90;;;;;;10394082;28;20068;-79
2022/10/06 16:49:23;;;;;;;16.35;9.50;;;15.50;99.90;;;;;;10384064;28;20110;-78
2022/10/06 16:54:24;;;;;;;19.25;9.13;;;15.20;99.90;;;;;;10386606;28;20034;-79
2022/10/06 16:59:25;;;;;;;17.42;9.00;;;14.80;99.90;;;;;;10392408;28;20104;-79
2022/10/06 17:04:26;;;;;;;15.98;9.10;;;14.60;99.90;;;;;;10397417;28;20033;-78
2022/10/06 17:09:28;;;;;;;17.35;8.93;;;14.20;99.90;;;;;;10394283;28;20040;-78
2022/10/06 17:14:30;;;;;;;16.50;8.55;;;14.00;99.90;;;;;;10391249;28;20060;-81
2022/10/06 17:19:31;;;;;;;12.10;7.78;;;13.70;99.90;;;;;;10395060;28;20087;-78
2022/10/06 17:24:31;;;;;;;9.63;5.70;;;13.60;99.90;;;;;;10394416;28;20029;-78
2022/10/06 17:29:32;;;;;;;9.93;5.63;;;13.40;99.90;;;;;;10403314;28;20029;-78
2022/10/06 17:34:33;;;;;;;10.48;6.85;;;13.10;99.90;;;;;;10399610;28;20084;-80
2022/10/06 17:39:33;;;;;;;12.85;6.47;;;12.90;99.90;;;;;;10401249;28;20033;-78
2022/10/06 17:44:34;;;;;;;14.30;8.45;;;12.90;99.90;;;;;;10394041;28;20037;-77
2022/10/06 17:49:35;;;;;;;22.90;12.38;;;12.80;99.90;;;;;;10396310;28;20105;-78
2022/10/06 17:54:35;;;;;;;22.95;14.00;;;12.70;99.90;;;;;;10397466;28;20661;-79
2022/10/06 17:59:42;;;;;;;25.58;14.60;;;12.50;99.90;;;;;;10396473;28;20044;-81
2022/10/06 18:04:43;;;;;;;21.40;13.68;;;12.50;99.90;;;;;;10397316;28;20124;-79
2022/10/06 18:11:31;;;;;;;28.70;16.73;;;12.40;99.90;;;;;;10393492;28;20048;-80
2022/10/06 18:15:05;;;;;;;31.00;18.17;;;12.30;99.90;;;;;;10400938;28;20140;-80
2022/10/06 18:20:07;;;;;;;33.17;19.88;;;12.30;99.90;;;;;;10405246;28;20124;-80
2022/10/06 18:25:08;;;;;;;31.13;17.40;;;12.20;99.90;;;;;;10403699;28;20033;-80
2022/10/06 18:30:09;;;;;;;32.38;19.13;;;12.00;99.90;;;;;;10401549;28;20517;-82
2022/10/06 18:35:17;;;;;;;27.27;17.75;;;12.00;99.90;;;;;;10365632;28;20042;-82
2022/10/06 18:40:18;;;;;;;32.28;20.15;;;11.90;99.90;;;;;;10352443;28;20117;-79
2022/10/06 18:50:38;;;;;;;35.42;19.92;;;11.80;99.90;;;;;;10355656;28;20038;-78
2022/10/06 18:55:38;;;;;;;29.00;17.77;;;11.70;99.90;;;;;;10365372;28;20034;-78
2022/10/06 19:00:39;;;;;;;24.77;13.27;;;11.60;99.90;;;;;;10341057;28;20867;-79
2022/10/06 19:05:50;;;;;;;17.85;10.73;;;11.60;99.90;;;;;;10363733;28;20477;-79
2022/10/06 19:16:12;;;;;;;11.55;6.90;;;11.60;99.90;;;;;;10360900;28;20046;-79
2022/10/06 19:21:13;;;;;;;14.20;7.20;;;11.50;99.90;;;;;;10361943;28;20056;-79
2022/10/06 19:26:13;;;;;;;11.88;6.88;;;11.40;99.90;;;;;;10356552;28;20666;-80
2022/10/06 19:31:18;;;;;;;11.98;6.60;;;11.50;99.90;;;;;;10351911;28;20054;-79
2022/10/06 19:36:19;;;;;;;10.10;5.93;;;11.40;99.90;;;;;;10405306;28;20057;-80
2022/10/06 19:46:39;;;;;;;16.85;7.85;;;11.20;99.90;;;;;;10396891;28;20045;-79
2022/10/06 19:51:40;;;;;;;18.15;7.90;;;11.10;99.90;;;;;;10406360;28;20029;-80
2022/10/06 19:56:40;;;;;;;15.63;7.95;;;10.90;99.90;;;;;;10396931;28;20120;-82
2022/10/06 20:01:41;;;;;;;15.60;8.07;;;10.90;99.90;;;;;;10396626;28;20481;-79
2022/10/06 20:06:42;;;;;;;18.50;9.32;;;10.90;99.90;;;;;;10404506;28;20108;-79
2022/10/06 20:11:45;;;;;;;21.75;10.75;;;10.80;99.90;;;;;;10403951;28;20547;-79
2022/10/06 20:16:47;;;;;;;23.88;12.80;;;10.80;99.90;;;;;;10403269;28;20382;-80
2022/10/06 20:21:48;;;;;;;18.48;11.30;;;10.80;99.90;;;;;;10400393;28;20045;-81
2022/10/06 20:26:50;;;;;;;27.02;14.30;;;10.70;99.90;;;;;;10401108;28;20037;-79
2022/10/06 20:31:53;;;;;;;30.55;17.30;;;10.60;99.90;;;;;;10400774;28;20493;-80
2022/10/06 20:37:03;;;;;;;24.30;14.55;;;10.60;99.90;;;;;;10393510;28;20460;-79
2022/10/06 20:42:05;;;;;;;27.52;16.17;;;10.60;99.90;;;;;;10403565;28;20034;-80
2022/10/06 20:47:07;;;;;;;28.70;14.32;;;10.50;99.90;;;;;;10396419;28;20025;-83
2022/10/06 20:52:08;;;;;;;32.42;18.13;;;10.30;99.90;;;;;;10404850;28;20543;-79
2022/10/06 20:57:09;;;;;;;42.03;24.80;;;10.20;99.90;;;;;;10404887;28;20041;-80
2022/10/06 21:02:10;;;;;;;32.80;19.60;;;10.00;99.90;;;;;;10401976;28;20518;-80
2022/10/06 21:07:10;;;;;;;48.70;28.37;;;9.90;99.90;;;;;;10402724;28;20044;-83
2022/10/06 21:12:11;;;;;;;51.77;31.13;;;9.90;99.90;;;;;;10404613;28;20063;-80
2022/10/06 21:17:11;;;;;;;52.43;29.07;;;9.90;99.90;;;;;;10396435;28;20037;-80
2022/10/06 21:22:12;;;;;;;55.13;28.30;;;9.80;99.90;;;;;;10404238;28;20030;-79
2022/10/06 21:27:12;;;;;;;39.43;23.33;;;9.70;99.90;;;;;;10397376;28;20025;-79
2022/10/06 21:32:26;;;;;;;41.80;23.20;;;9.60;99.90;;;;;;10400864;28;20676;-79
2022/10/06 21:37:26;;;;;;;41.37;23.83;;;9.60;99.90;;;;;;10408386;28;20025;-80
2022/10/06 21:42:27;;;;;;;40.93;24.07;;;9.50;99.90;;;;;;10410312;28;20453;-82
2022/10/06 21:47:28;;;;;;;36.77;20.83;;;9.50;99.90;;;;;;10410545;28;20112;-79
2022/10/06 21:52:29;;;;;;;30.60;16.40;;;9.60;99.90;;;;;;10410418;28;20029;-81
2022/10/06 21:57:29;;;;;;;26.37;14.07;;;9.50;99.90;;;;;;10408580;28;20026;-79
2022/10/06 22:02:30;;;;;;;29.73;14.70;;;9.50;99.90;;;;;;10409455;28;20037;-78
2022/10/06 22:07:30;;;;;;;19.57;11.80;;;9.50;99.90;;;;;;10405779;28;20033;-81
2022/10/06 22:12:31;;;;;;;25.50;14.40;;;9.40;99.90;;;;;;10394780;28;20037;-82
2022/10/06 22:17:31;;;;;;;38.37;20.23;;;9.30;99.90;;;;;;10406125;28;20477;-82
2022/10/06 22:22:32;;;;;;;32.30;18.50;;;9.30;99.90;;;;;;10410148;28;20037;-80
2022/10/06 22:27:32;;;;;;;38.33;19.53;;;9.20;99.90;;;;;;10409921;28;20013;-79
2022/10/06 22:32:33;;;;;;;25.43;14.83;;;9.20;99.90;;;;;;10389872;28;20148;-79
2022/10/06 22:37:34;;;;;;;19.00;11.37;;;9.00;99.90;;;;;;10408962;28;20017;-81
2022/10/06 22:42:34;;;;;;;19.70;11.37;;;9.00;99.90;;;;;;10407718;28;20041;-79
2022/10/06 22:47:35;;;;;;;22.87;13.60;;;8.90;99.90;;;;;;10398783;28;20476;-79
2022/10/06 22:52:35;;;;;;;27.73;14.70;;;9.00;99.90;;;;;;10409782;28;20029;-79
2022/10/06 22:57:36;;;;;;;26.77;15.60;;;9.00;99.90;;;;;;10408850;28;20469;-80
2022/10/06 23:02:36;;;;;;;33.23;16.97;;;9.00;99.90;;;;;;10406751;28;20045;-78
2022/10/06 23:07:37;;;;;;;25.43;14.40;;;8.90;99.90;;;;;;10408735;28;20034;-81
2022/10/06 23:12:37;;;;;;;25.23;14.70;;;8.90;99.90;;;;;;10399190;28;20409;-79
2022/10/06 23:17:39;;;;;;;55.20;18.57;;;8.90;99.90;;;;;;10407328;28;20041;-82
2022/10/06 23:22:39;;;;;;;31.47;17.27;;;8.80;99.90;;;;;;10407252;28;20401;-79
2022/10/06 23:27:40;;;;;;;31.97;18.13;;;8.70;99.90;;;;;;10407079;28;20038;-82
2022/10/06 23:32:40;;;;;;;61.17;24.03;;;8.80;99.90;;;;;;10389358;28;20140;-79
2022/10/06 23:37:41;;;;;;;35.27;21.23;;;8.70;99.90;;;;;;10404800;28;20498;-79
2022/10/06 23:42:41;;;;;;;28.23;15.70;;;8.60;99.90;;;;;;10402696;28;20026;-78
2022/10/06 23:47:42;;;;;;;25.23;13.63;;;8.60;99.90;;;;;;10387943;28;20039;-80
2022/10/06 23:52:42;;;;;;;57.40;21.10;;;8.70;99.90;;;;;;10406772;28;20171;-79
2022/10/06 23:57:43;;;;;;;36.23;18.43;;;8.70;99.90;;;;;;10407487;28;20156;-83
